createdAt,value
2018-09-17T00:00:12.732Z,1006.78
2018-09-17T00:01:12.703Z,1006.77
2018-09-17T00:02:12.693Z,1006.74
2018-09-17T00:03:12.685Z,1006.77
2018-09-17T00:04:12.694Z,1006.76
2018-09-17T00:05:12.661Z,1006.77
2018-09-17T00:06:12.658Z,1006.75
2018-09-17T00:07:12.640Z,1006.72
2018-09-17T00:08:12.632Z,1006.70
2018-09-17T00:09:12.618Z,1006.72
2018-09-17T00:10:12.623Z,1006.72
2018-09-17T00:11:12.598Z,1006.71
2018-09-17T00:12:12.587Z,1006.72
2018-09-17T00:13:12.580Z,1006.67
2018-09-17T00:14:12.565Z,1006.77
2018-09-17T00:15:12.576Z,1006.76
2018-09-17T00:16:12.542Z,1006.78
2018-09-17T00:17:12.534Z,1006.76
2018-09-17T00:18:12.524Z,1006.75
2018-09-17T00:19:12.513Z,1006.78
2018-09-17T00:20:12.515Z,1006.76
2018-09-17T00:21:12.490Z,1006.77
2018-09-17T00:22:12.477Z,1006.74
2018-09-17T00:23:12.468Z,1006.76
2018-09-17T00:24:12.457Z,1006.75
2018-09-17T00:25:12.459Z,1006.81
2018-09-17T00:26:12.435Z,1006.82
2018-09-17T00:27:12.440Z,1006.84
2018-09-17T00:28:12.412Z,1006.85
2018-09-17T00:29:12.400Z,1006.82
2018-09-17T00:30:12.407Z,1006.83
2018-09-17T00:31:12.382Z,1006.81
2018-09-17T00:32:12.384Z,1006.79
2018-09-17T00:33:12.357Z,1006.77
2018-09-17T00:34:12.366Z,1006.73
2018-09-17T00:35:12.339Z,1006.73
2018-09-17T00:36:12.325Z,1006.70
2018-09-17T00:37:12.316Z,1006.65
2018-09-17T00:38:12.306Z,1006.65
2018-09-17T00:39:12.296Z,1006.64
2018-09-17T00:40:12.317Z,1006.61
2018-09-17T00:41:12.273Z,1006.65
2018-09-17T00:42:12.260Z,1006.68
2018-09-17T00:43:12.255Z,1006.61
2018-09-17T00:44:12.237Z,1006.66
2018-09-17T00:45:12.227Z,1006.70
2018-09-17T00:46:12.233Z,1006.68
2018-09-17T00:47:12.205Z,1006.70
2018-09-17T00:48:12.197Z,1006.72
2018-09-17T00:49:12.244Z,1006.72
2018-09-17T00:50:12.172Z,1006.72
2018-09-17T00:51:12.165Z,1006.74
2018-09-17T00:52:12.151Z,1006.74
2018-09-17T00:53:12.143Z,1006.75
2018-09-17T00:54:12.145Z,1006.78
2018-09-17T00:55:12.123Z,1006.77
2018-09-17T00:56:12.108Z,1006.78
2018-09-17T00:57:12.099Z,1006.74
2018-09-17T00:58:12.090Z,1006.76
2018-09-17T00:59:12.091Z,1006.80
2018-09-17T01:00:12.091Z,1006.80
2018-09-17T01:01:12.055Z,1006.78
2018-09-17T01:02:12.058Z,1006.83
2018-09-17T01:03:12.053Z,1006.80
2018-09-17T01:04:12.023Z,1006.81
2018-09-17T01:05:12.012Z,1006.81
2018-09-17T01:06:12.000Z,1006.79
2018-09-17T01:07:11.990Z,1006.79
2018-09-17T01:08:11.983Z,1006.80
2018-09-17T01:09:11.983Z,1006.78
2018-09-17T01:10:11.954Z,1006.75
2018-09-17T01:11:11.946Z,1006.79
2018-09-17T01:12:11.935Z,1006.77
2018-09-17T01:13:11.922Z,1006.71
2018-09-17T01:14:11.922Z,1006.73
2018-09-17T01:15:11.901Z,1006.71
2018-09-17T01:16:11.906Z,1006.70
2018-09-17T01:17:11.880Z,1006.69
2018-09-17T01:18:11.868Z,1006.70
2018-09-17T01:19:11.860Z,1006.69
2018-09-17T01:20:11.855Z,1006.68
2018-09-17T01:21:11.852Z,1006.69
2018-09-17T01:22:11.825Z,1006.74
2018-09-17T01:23:11.813Z,1006.75
2018-09-17T01:24:11.806Z,1006.74
2018-09-17T01:25:11.793Z,1006.76
2018-09-17T01:26:11.801Z,1006.74
2018-09-17T01:27:11.774Z,1006.75
2018-09-17T01:28:11.760Z,1006.74
2018-09-17T01:29:11.751Z,1006.75
2018-09-17T01:30:11.741Z,1006.75
2018-09-17T01:31:11.741Z,1006.76
2018-09-17T01:32:11.715Z,1006.75
2018-09-17T01:33:11.721Z,1006.71
2018-09-17T01:34:11.711Z,1006.71
2018-09-17T01:35:11.699Z,1006.75
2018-09-17T01:36:11.673Z,1006.74
2018-09-17T01:37:11.662Z,1006.80
2018-09-17T01:38:11.653Z,1006.80
2018-09-17T01:39:11.639Z,1006.86
2018-09-17T01:40:11.629Z,1006.80
2018-09-17T01:41:11.645Z,1006.88
2018-09-17T01:42:11.606Z,1006.80
2018-09-17T01:43:11.598Z,1006.87
2018-09-17T01:44:11.587Z,1006.79
2018-09-17T01:45:11.576Z,1006.78
2018-09-17T01:46:11.629Z,1006.81
2018-09-17T01:47:11.571Z,1006.73
2018-09-17T01:48:11.541Z,1006.77
2018-09-17T01:49:11.547Z,1006.75
2018-09-17T01:50:11.518Z,1006.72
2018-09-17T01:51:11.509Z,1006.70
2018-09-17T01:52:11.499Z,1006.70
2018-09-17T01:53:11.485Z,1006.64
2018-09-17T01:54:11.498Z,1006.60
2018-09-17T01:55:11.466Z,1006.63
2018-09-17T01:56:11.455Z,1006.56
2018-09-17T01:57:11.441Z,1006.56
2018-09-17T01:58:11.433Z,1006.56
2018-09-17T01:59:11.421Z,1006.59
2018-09-17T02:00:11.430Z,1006.58
2018-09-17T02:01:11.399Z,1006.62
2018-09-17T02:02:11.391Z,1006.64
2018-09-17T02:03:11.375Z,1006.65
2018-09-17T02:04:11.366Z,1006.64
2018-09-17T02:05:11.351Z,1006.67
2018-09-17T02:06:11.358Z,1006.63
2018-09-17T02:07:11.334Z,1006.65
2018-09-17T02:08:11.343Z,1006.68
2018-09-17T02:09:11.440Z,1006.65
2018-09-17T02:10:11.299Z,1006.66
2018-09-17T02:11:11.290Z,1006.60
2018-09-17T02:12:11.276Z,1006.61
2018-09-17T02:13:11.263Z,1006.58
2018-09-17T02:14:11.254Z,1006.58
2018-09-17T02:15:11.255Z,1006.57
2018-09-17T02:16:11.231Z,1006.55
2018-09-17T02:17:11.237Z,1006.54
2018-09-17T02:18:11.210Z,1006.51
2018-09-17T02:19:11.201Z,1006.56
2018-09-17T02:20:11.203Z,1006.53
2018-09-17T02:21:11.180Z,1006.57
2018-09-17T02:22:11.170Z,1006.54
2018-09-17T02:23:11.157Z,1006.57
2018-09-17T02:24:11.156Z,1006.54
2018-09-17T02:25:11.134Z,1006.54
2018-09-17T02:26:11.121Z,1006.58
2018-09-17T02:27:11.111Z,1006.53
2018-09-17T02:28:11.113Z,1006.52
2018-09-17T02:29:11.105Z,1006.52
2018-09-17T02:30:11.079Z,1006.53
2018-09-17T02:31:11.071Z,1006.54
2018-09-17T02:32:11.057Z,1006.56
2018-09-17T02:33:11.062Z,1006.61
2018-09-17T02:34:11.036Z,1006.59
2018-09-17T02:35:11.022Z,1006.61
2018-09-17T02:36:11.012Z,1006.63
2018-09-17T02:37:11.003Z,1006.66
2018-09-17T02:38:11.006Z,1006.66
2018-09-17T02:39:10.979Z,1006.65
2018-09-17T02:40:10.987Z,1006.68
2018-09-17T02:41:10.959Z,1006.67
2018-09-17T02:42:10.947Z,1006.65
2018-09-17T02:43:10.937Z,1006.66
2018-09-17T02:44:10.925Z,1006.70
2018-09-17T02:45:10.933Z,1006.67
2018-09-17T02:46:10.908Z,1006.69
2018-09-17T02:47:10.895Z,1006.70
2018-09-17T02:48:10.884Z,1006.70
2018-09-17T02:49:10.874Z,1006.70
2018-09-17T02:50:10.876Z,1006.67
2018-09-17T02:51:10.851Z,1006.70
2018-09-17T02:52:10.839Z,1006.72
2018-09-17T02:53:10.829Z,1006.68
2018-09-17T02:54:10.830Z,1006.70
2018-09-17T02:55:10.830Z,1006.64
2018-09-17T02:56:10.797Z,1006.67
2018-09-17T02:57:10.783Z,1006.64
2018-09-17T02:58:10.774Z,1006.65
2018-09-17T02:59:10.762Z,1006.61
2018-09-17T03:00:10.751Z,1006.62
2018-09-17T03:01:10.759Z,1006.61
2018-09-17T03:02:10.735Z,1006.62
2018-09-17T03:03:10.719Z,1006.61
2018-09-17T03:04:10.708Z,1006.64
2018-09-17T03:05:10.695Z,1006.62
2018-09-17T03:06:10.706Z,1006.62
2018-09-17T03:07:10.673Z,1006.61
2018-09-17T03:08:10.664Z,1006.64
2018-09-17T03:09:10.653Z,1006.65
2018-09-17T03:10:10.644Z,1006.63
2018-09-17T03:11:10.631Z,1006.63
2018-09-17T03:12:10.661Z,1006.66
2018-09-17T03:13:10.608Z,1006.66
2018-09-17T03:14:10.601Z,1006.65
2018-09-17T03:15:10.587Z,1006.68
2018-09-17T03:16:10.578Z,1006.69
2018-09-17T03:17:10.566Z,1006.71
2018-09-17T03:18:10.597Z,1006.68
2018-09-17T03:19:10.543Z,1006.73
2018-09-17T03:20:10.535Z,1006.76
2018-09-17T03:21:10.519Z,1006.72
2018-09-17T03:22:10.508Z,1006.75
2018-09-17T03:23:10.496Z,1006.78
2018-09-17T03:24:10.502Z,1006.76
2018-09-17T03:25:10.483Z,1006.81
2018-09-17T03:26:10.467Z,1006.78
2018-09-17T03:27:10.466Z,1006.78
2018-09-17T03:28:10.455Z,1006.76
2018-09-17T03:29:10.430Z,1006.80
2018-09-17T03:30:10.419Z,1006.80
2018-09-17T03:31:10.410Z,1006.82
2018-09-17T03:32:10.412Z,1006.82
2018-09-17T03:33:10.387Z,1006.82
2018-09-17T03:34:10.389Z,1006.81
2018-09-17T03:35:10.368Z,1006.81
2018-09-17T03:36:10.354Z,1006.79
2018-09-17T03:37:10.345Z,1006.83
2018-09-17T03:38:10.374Z,1006.84
2018-09-17T03:39:10.325Z,1006.85
2018-09-17T03:40:10.311Z,1006.86
2018-09-17T03:41:10.305Z,1006.86
2018-09-17T03:42:10.294Z,1006.89
2018-09-17T03:43:10.284Z,1006.80
2018-09-17T03:44:10.282Z,1006.78
2018-09-17T03:45:10.254Z,1006.80
2018-09-17T03:46:10.304Z,1006.82
2018-09-17T03:47:10.235Z,1006.78
2018-09-17T03:48:10.226Z,1006.79
2018-09-17T03:49:10.225Z,1006.76
2018-09-17T03:50:10.214Z,1006.74
2018-09-17T03:51:10.191Z,1006.77
2018-09-17T03:52:10.197Z,1006.80
2018-09-17T03:53:10.165Z,1006.80
2018-09-17T03:54:10.154Z,1006.77
2018-09-17T03:55:10.144Z,1006.82
2018-09-17T03:56:10.134Z,1006.88
2018-09-17T03:57:10.150Z,1006.90
2018-09-17T03:58:10.115Z,1006.87
2018-09-17T03:59:10.101Z,1006.88
2018-09-17T04:00:10.093Z,1006.92
2018-09-17T04:01:10.081Z,1006.85
2018-09-17T04:02:10.071Z,1006.91
2018-09-17T04:03:10.074Z,1006.89
2018-09-17T04:04:10.051Z,1006.84
2018-09-17T04:05:10.035Z,1006.82
2018-09-17T04:06:10.041Z,1006.72
2018-09-17T04:07:10.030Z,1006.72
2018-09-17T04:08:10.004Z,1006.68
2018-09-17T04:09:10.024Z,1006.67
2018-09-17T04:10:09.982Z,1006.66
2018-09-17T04:11:09.972Z,1006.67
2018-09-17T04:12:09.972Z,1006.64
2018-09-17T04:13:09.951Z,1006.66
2018-09-17T04:14:09.939Z,1006.63
2018-09-17T04:15:09.926Z,1006.63
2018-09-17T04:16:10.771Z,1006.59
2018-09-17T04:17:09.922Z,1006.61
2018-09-17T04:18:09.893Z,1006.66
2018-09-17T04:19:09.881Z,1006.63
2018-09-17T04:20:09.870Z,1006.66
2018-09-17T04:21:09.859Z,1006.68
2018-09-17T04:22:09.863Z,1006.66
2018-09-17T04:23:09.858Z,1006.66
2018-09-17T04:24:09.829Z,1006.66
2018-09-17T04:25:09.818Z,1006.64
2018-09-17T04:26:09.804Z,1006.67
2018-09-17T04:27:09.797Z,1006.63
2018-09-17T04:28:09.784Z,1006.64
2018-09-17T04:29:09.798Z,1006.63
2018-09-17T04:30:09.762Z,1006.60
2018-09-17T04:31:09.749Z,1006.63
2018-09-17T04:32:09.739Z,1006.59
2018-09-17T04:33:09.801Z,1006.62
2018-09-17T04:34:09.717Z,1006.61
2018-09-17T04:35:09.727Z,1006.59
2018-09-17T04:36:09.697Z,1006.56
2018-09-17T04:37:09.685Z,1006.59
2018-09-17T04:38:09.674Z,1006.56
2018-09-17T04:39:09.663Z,1006.53
2018-09-17T04:40:09.664Z,1006.58
2018-09-17T04:41:09.657Z,1006.55
2018-09-17T04:42:09.631Z,1006.54
2018-09-17T04:43:09.666Z,1006.53
2018-09-17T04:44:09.609Z,1006.57
2018-09-17T04:45:09.619Z,1006.54
2018-09-17T04:46:09.602Z,1006.54
2018-09-17T04:47:09.577Z,1006.59
2018-09-17T04:48:09.565Z,1006.62
2018-09-17T04:49:09.568Z,1006.61
2018-09-17T04:50:09.546Z,1006.65
2018-09-17T04:51:09.535Z,1006.66
2018-09-17T04:52:09.522Z,1006.68
2018-09-17T04:53:09.510Z,1006.71
2018-09-17T04:54:09.554Z,1006.70
2018-09-17T04:55:09.490Z,1006.72
2018-09-17T04:56:09.482Z,1006.73
2018-09-17T04:57:09.508Z,1006.77
2018-09-17T04:58:09.460Z,1006.82
2018-09-17T04:59:09.446Z,1006.88
2018-09-17T05:00:09.458Z,1006.87
2018-09-17T05:01:09.425Z,1006.95
2018-09-17T05:02:09.416Z,1006.91
2018-09-17T05:03:09.404Z,1006.89
2018-09-17T05:04:09.393Z,1006.93
2018-09-17T05:05:09.380Z,1006.89
2018-09-17T05:06:09.379Z,1006.91
2018-09-17T05:07:09.397Z,1006.92
2018-09-17T05:08:09.349Z,1006.89
2018-09-17T05:09:09.337Z,1006.90
2018-09-17T05:10:09.339Z,1006.91
2018-09-17T05:11:09.327Z,1006.94
2018-09-17T05:12:09.308Z,1006.94
2018-09-17T05:13:09.309Z,1006.99
2018-09-17T05:14:09.286Z,1006.95
2018-09-17T05:15:09.272Z,1006.97
2018-09-17T05:16:09.277Z,1006.93
2018-09-17T05:17:09.261Z,1006.95
2018-09-17T05:18:09.240Z,1006.99
2018-09-17T05:19:09.234Z,1006.98
2018-09-17T05:20:09.220Z,1007.03
2018-09-17T05:21:09.209Z,1007.05
2018-09-17T05:22:09.210Z,1007.06
2018-09-17T05:23:09.188Z,1007.07
2018-09-17T05:24:09.176Z,1007.07
2018-09-17T05:25:09.162Z,1007.09
2018-09-17T05:26:09.167Z,1007.10
2018-09-17T05:27:09.145Z,1007.04
2018-09-17T05:28:09.134Z,1007.06
2018-09-17T05:29:09.122Z,1007.05
2018-09-17T05:30:09.111Z,1007.05
2018-09-17T05:31:09.100Z,1007.05
2018-09-17T05:32:09.098Z,1007.07
2018-09-17T05:33:09.074Z,1007.04
2018-09-17T05:34:09.068Z,1007.08
2018-09-17T05:35:09.112Z,1007.10
2018-09-17T05:36:09.045Z,1007.09
2018-09-17T05:37:09.049Z,1007.15
2018-09-17T05:38:09.023Z,1007.08
2018-09-17T05:39:09.009Z,1007.08
2018-09-17T05:40:08.999Z,1007.09
2018-09-17T05:41:08.989Z,1007.09
2018-09-17T05:42:08.978Z,1007.13
2018-09-17T05:43:08.984Z,1007.10
2018-09-17T05:44:08.958Z,1007.10
2018-09-17T05:45:08.944Z,1007.13
2018-09-17T05:46:08.935Z,1007.12
2018-09-17T05:47:08.925Z,1007.14
2018-09-17T05:48:08.950Z,1007.13
2018-09-17T05:49:08.912Z,1007.13
2018-09-17T05:50:08.894Z,1007.18
2018-09-17T05:51:08.878Z,1007.20
2018-09-17T05:52:08.871Z,1007.23
2018-09-17T05:53:08.857Z,1007.22
2018-09-17T05:54:08.884Z,1007.30
2018-09-17T05:55:08.838Z,1007.25
2018-09-17T05:56:08.825Z,1007.30
2018-09-17T05:57:08.824Z,1007.34
2018-09-17T05:58:08.809Z,1007.32
2018-09-17T05:59:08.790Z,1007.31
2018-09-17T06:00:08.794Z,1007.34
2018-09-17T06:01:08.772Z,1007.34
2018-09-17T06:02:08.762Z,1007.29
2018-09-17T06:03:08.750Z,1007.31
2018-09-17T06:04:08.740Z,1007.30
2018-09-17T06:05:08.745Z,1007.29
2018-09-17T06:06:08.763Z,1007.34
2018-09-17T06:07:08.761Z,1007.24
2018-09-17T06:08:08.691Z,1007.28
2018-09-17T06:09:08.685Z,1007.23
2018-09-17T06:10:08.684Z,1007.25
2018-09-17T06:11:08.729Z,1007.26
2018-09-17T06:12:08.649Z,1007.28
2018-09-17T06:13:08.641Z,1007.27
2018-09-17T06:14:08.627Z,1007.26
2018-09-17T06:15:08.616Z,1007.26
2018-09-17T06:16:08.626Z,1007.30
2018-09-17T06:17:08.598Z,1007.22
2018-09-17T06:18:08.586Z,1007.20
2018-09-17T06:19:08.573Z,1007.21
2018-09-17T06:20:08.566Z,1007.17
2018-09-17T06:21:08.554Z,1007.22
2018-09-17T06:22:08.553Z,1007.22
2018-09-17T06:23:08.535Z,1007.22
2018-09-17T06:24:08.523Z,1007.26
2018-09-17T06:25:08.525Z,1007.30
2018-09-17T06:26:08.512Z,1007.30
2018-09-17T06:27:08.489Z,1007.27
2018-09-17T06:28:08.502Z,1007.26
2018-09-17T06:29:08.469Z,1007.24
2018-09-17T06:30:08.453Z,1007.29
2018-09-17T06:31:08.442Z,1007.30
2018-09-17T06:32:08.435Z,1007.32
2018-09-17T06:33:08.424Z,1007.30
2018-09-17T06:34:08.438Z,1007.30
2018-09-17T06:35:08.398Z,1007.25
2018-09-17T06:36:08.456Z,1007.29
2018-09-17T06:37:08.377Z,1007.27
2018-09-17T06:38:08.366Z,1007.29
2018-09-17T06:39:08.394Z,1007.33
2018-09-17T06:40:08.346Z,1007.34
2018-09-17T06:41:08.334Z,1007.37
2018-09-17T06:42:08.324Z,1007.39
2018-09-17T06:43:08.313Z,1007.40
2018-09-17T06:44:08.305Z,1007.42
2018-09-17T06:45:08.303Z,1007.47
2018-09-17T06:46:08.283Z,1007.47
2018-09-17T06:47:08.274Z,1007.48
2018-09-17T06:48:08.275Z,1007.51
2018-09-17T06:49:08.262Z,1007.56
2018-09-17T06:50:08.234Z,1007.63
2018-09-17T06:51:08.224Z,1007.60
2018-09-17T06:52:08.212Z,1007.66
2018-09-17T06:53:08.202Z,1007.66
2018-09-17T06:54:08.193Z,1007.67
2018-09-17T06:55:08.193Z,1007.70
2018-09-17T06:56:08.170Z,1007.72
2018-09-17T06:57:08.160Z,1007.66
2018-09-17T06:58:08.149Z,1007.65
2018-09-17T06:59:08.139Z,1007.65
2018-09-17T07:00:08.140Z,1007.72
2018-09-17T07:01:08.116Z,1007.69
2018-09-17T07:02:08.107Z,1007.79
2018-09-17T07:03:08.094Z,1007.79
2018-09-17T07:04:08.097Z,1007.74
2018-09-17T07:05:08.114Z,1007.71
2018-09-17T07:06:08.078Z,1007.76
2018-09-17T07:07:08.052Z,1007.76
2018-09-17T07:08:08.043Z,1007.78
2018-09-17T07:09:08.028Z,1007.75
2018-09-17T07:10:08.018Z,1007.75
2018-09-17T07:11:08.024Z,1007.77
2018-09-17T07:12:08.009Z,1007.72
2018-09-17T07:13:07.988Z,1007.74
2018-09-17T07:14:07.976Z,1007.74
2018-09-17T07:15:07.968Z,1007.69
2018-09-17T07:16:07.963Z,1007.65
2018-09-17T07:17:07.960Z,1007.65
2018-09-17T07:18:07.984Z,1007.57
2018-09-17T07:19:07.923Z,1007.58
2018-09-17T07:20:07.914Z,1007.55
2018-09-17T07:21:07.901Z,1007.54
2018-09-17T07:22:07.894Z,1007.54
2018-09-17T07:23:07.901Z,1007.49
2018-09-17T07:24:07.871Z,1007.52
2018-09-17T07:25:07.860Z,1007.55
2018-09-17T07:26:07.879Z,1007.59
2018-09-17T07:27:07.838Z,1007.58
2018-09-17T07:28:07.825Z,1007.63
2018-09-17T07:29:07.831Z,1007.66
2018-09-17T07:30:07.803Z,1007.62
2018-09-17T07:31:07.795Z,1007.63
2018-09-17T07:32:07.844Z,1007.56
2018-09-17T07:33:07.797Z,1007.59
2018-09-17T07:34:07.761Z,1007.53
2018-09-17T07:35:07.750Z,1007.57
2018-09-17T07:36:07.803Z,1007.56
2018-09-17T07:37:07.731Z,1007.57
2018-09-17T07:38:07.717Z,1007.55
2018-09-17T07:39:07.728Z,1007.55
2018-09-17T07:40:07.695Z,1007.54
2018-09-17T07:41:07.684Z,1007.56
2018-09-17T07:42:07.732Z,1007.59
2018-09-17T07:43:07.665Z,1007.60
2018-09-17T07:44:07.655Z,1007.58
2018-09-17T07:45:07.657Z,1007.54
2018-09-17T07:46:07.631Z,1007.61
2018-09-17T07:47:07.621Z,1007.66
2018-09-17T07:48:07.614Z,1007.64
2018-09-17T07:49:07.601Z,1007.59
2018-09-17T07:50:07.607Z,1007.56
2018-09-17T07:51:07.577Z,1007.62
2018-09-17T07:52:07.593Z,1007.61
2018-09-17T07:53:07.627Z,1007.69
2018-09-17T07:54:07.556Z,1007.64
2018-09-17T07:55:07.535Z,1007.69
2018-09-17T07:56:07.522Z,1007.66
2018-09-17T07:57:07.524Z,1007.62
2018-09-17T07:58:07.501Z,1007.64
2018-09-17T07:59:07.507Z,1007.70
2018-09-17T08:00:07.499Z,1007.68
2018-09-17T08:01:07.471Z,1007.69
2018-09-17T08:02:07.462Z,1007.67
2018-09-17T08:03:07.452Z,1007.62
2018-09-17T08:04:07.452Z,1007.65
2018-09-17T08:05:07.431Z,1007.66
2018-09-17T08:06:07.428Z,1007.65
2018-09-17T08:07:07.412Z,1007.67
2018-09-17T08:08:07.400Z,1007.65
2018-09-17T08:09:07.387Z,1007.66
2018-09-17T08:10:07.376Z,1007.67
2018-09-17T08:11:07.387Z,1007.64
2018-09-17T08:12:07.357Z,1007.66
2018-09-17T08:13:07.344Z,1007.69
2018-09-17T08:14:07.335Z,1007.64
2018-09-17T08:15:07.324Z,1007.69
2018-09-17T08:16:07.311Z,1007.69
2018-09-17T08:17:07.368Z,1007.73
2018-09-17T08:18:07.292Z,1007.70
2018-09-17T08:19:07.279Z,1007.64
2018-09-17T08:20:07.271Z,1007.70
2018-09-17T08:21:07.261Z,1007.66
2018-09-17T08:22:07.269Z,1007.62
2018-09-17T08:23:07.239Z,1007.66
2018-09-17T08:24:07.229Z,1007.64
2018-09-17T08:25:07.217Z,1007.61
2018-09-17T08:26:07.212Z,1007.58
2018-09-17T08:27:07.200Z,1007.60
2018-09-17T08:28:07.202Z,1007.65
2018-09-17T08:29:07.177Z,1007.69
2018-09-17T08:30:07.179Z,1007.69
2018-09-17T08:31:07.153Z,1007.67
2018-09-17T08:32:07.143Z,1007.65
2018-09-17T08:33:07.148Z,1007.70
2018-09-17T08:34:07.125Z,1007.64
2018-09-17T08:35:07.113Z,1007.61
2018-09-17T08:36:07.102Z,1007.61
2018-09-17T08:37:07.093Z,1007.60
2018-09-17T08:38:07.102Z,1007.56
2018-09-17T08:39:07.088Z,1007.58
2018-09-17T08:40:07.061Z,1007.58
2018-09-17T08:41:07.049Z,1007.58
2018-09-17T08:42:07.037Z,1007.57
2018-09-17T08:43:07.027Z,1007.57
2018-09-17T08:44:07.031Z,1007.51
2018-09-17T08:45:07.006Z,1007.47
2018-09-17T08:46:06.999Z,1007.48
2018-09-17T08:47:06.986Z,1007.53
2018-09-17T08:48:06.977Z,1007.50
2018-09-17T08:49:06.989Z,1007.46
2018-09-17T08:50:06.956Z,1007.48
2018-09-17T08:51:06.946Z,1007.49
2018-09-17T08:52:06.945Z,1007.48
2018-09-17T08:53:06.939Z,1007.49
2018-09-17T08:54:06.912Z,1007.38
2018-09-17T08:55:06.921Z,1007.46
2018-09-17T08:56:06.894Z,1007.49
2018-09-17T08:57:06.884Z,1007.48
2018-09-17T08:58:06.883Z,1007.50
2018-09-17T08:59:06.862Z,1007.55
2018-09-17T09:00:06.869Z,1007.56
2018-09-17T09:01:06.840Z,1007.54
2018-09-17T09:02:06.833Z,1007.54
2018-09-17T09:03:06.818Z,1007.55
2018-09-17T09:04:06.880Z,1007.50
2018-09-17T09:05:06.921Z,1007.55
2018-09-17T09:06:06.788Z,1007.55
2018-09-17T09:07:06.776Z,1007.53
2018-09-17T09:08:06.769Z,1007.49
2018-09-17T09:09:06.757Z,1007.55
2018-09-17T09:10:06.744Z,1007.52
2018-09-17T09:11:06.750Z,1007.48
2018-09-17T09:12:06.726Z,1007.49
2018-09-17T09:13:06.713Z,1007.51
2018-09-17T09:14:06.708Z,1007.55
2018-09-17T09:15:06.698Z,1007.51
2018-09-17T09:16:06.698Z,1007.50
2018-09-17T09:17:06.683Z,1007.53
2018-09-17T09:18:06.661Z,1007.48
2018-09-17T09:19:06.653Z,1007.48
2018-09-17T09:20:06.641Z,1007.47
2018-09-17T09:21:06.662Z,1007.46
2018-09-17T09:22:06.620Z,1007.45
2018-09-17T09:23:06.648Z,1007.52
2018-09-17T09:24:06.600Z,1007.50
2018-09-17T09:25:06.590Z,1007.55
2018-09-17T09:26:06.609Z,1007.62
2018-09-17T09:27:06.567Z,1007.58
2018-09-17T09:28:06.558Z,1007.58
2018-09-17T09:29:06.565Z,1007.57
2018-09-17T09:30:06.535Z,1007.55
2018-09-17T09:31:06.525Z,1007.52
2018-09-17T09:32:06.515Z,1007.52
2018-09-17T09:33:06.506Z,1007.47
2018-09-17T09:34:06.494Z,1007.47
2018-09-17T09:35:06.496Z,1007.43
2018-09-17T09:36:06.496Z,1007.46
2018-09-17T09:37:06.462Z,1007.48
2018-09-17T09:38:06.493Z,1007.47
2018-09-17T09:39:06.439Z,1007.47
2018-09-17T09:40:06.434Z,1007.49
2018-09-17T09:41:06.420Z,1007.52
2018-09-17T09:42:06.463Z,1007.52
2018-09-17T09:43:06.400Z,1007.47
2018-09-17T09:44:06.391Z,1007.51
2018-09-17T09:45:06.390Z,1007.49
2018-09-17T09:46:06.370Z,1007.53
2018-09-17T09:47:06.409Z,1007.43
2018-09-17T09:48:06.345Z,1007.48
2018-09-17T09:49:06.372Z,1007.52
2018-09-17T09:50:06.392Z,1007.53
2018-09-17T09:51:06.314Z,1007.56
2018-09-17T09:52:06.307Z,1007.62
2018-09-17T09:53:06.330Z,1007.49
2018-09-17T09:54:06.283Z,1007.57
2018-09-17T09:55:06.288Z,1007.57
2018-09-17T09:56:06.262Z,1007.52
2018-09-17T09:57:06.254Z,1007.51
2018-09-17T09:58:06.240Z,1007.45
2018-09-17T09:59:06.230Z,1007.48
2018-09-17T10:00:06.233Z,1007.44
2018-09-17T10:01:06.211Z,1007.43
2018-09-17T10:02:06.199Z,1007.47
2018-09-17T10:03:06.191Z,1007.44
2018-09-17T10:04:06.183Z,1007.48
2018-09-17T10:05:06.185Z,1007.50
2018-09-17T10:06:06.157Z,1007.54
2018-09-17T10:07:06.247Z,1007.51
2018-09-17T10:08:06.141Z,1007.49
2018-09-17T10:09:06.126Z,1007.43
2018-09-17T10:10:06.140Z,1007.47
2018-09-17T10:11:06.143Z,1007.48
2018-09-17T10:12:06.098Z,1007.41
2018-09-17T10:13:06.087Z,1007.42
2018-09-17T10:14:06.083Z,1007.37
2018-09-17T10:15:06.078Z,1007.39
2018-09-17T10:16:06.073Z,1007.41
2018-09-17T10:17:06.044Z,1007.40
2018-09-17T10:18:06.034Z,1007.38
2018-09-17T10:19:06.045Z,1007.40
2018-09-17T10:20:06.038Z,1007.37
2018-09-17T10:21:06.038Z,1007.40
2018-09-17T10:22:06.058Z,1007.39
2018-09-17T10:23:06.028Z,1007.35
2018-09-17T10:24:05.972Z,1007.32
2018-09-17T10:25:05.980Z,1007.32
2018-09-17T10:26:05.954Z,1007.31
2018-09-17T10:27:05.942Z,1007.31
2018-09-17T10:28:06.046Z,1007.29
2018-09-17T10:29:05.922Z,1007.27
2018-09-17T10:30:05.912Z,1007.35
2018-09-17T10:31:05.917Z,1007.31
2018-09-17T10:32:05.889Z,1007.28
2018-09-17T10:33:05.879Z,1007.24
2018-09-17T10:34:05.868Z,1007.24
2018-09-17T10:35:05.859Z,1007.24
2018-09-17T10:36:05.886Z,1007.20
2018-09-17T10:37:05.839Z,1007.23
2018-09-17T10:38:05.828Z,1007.20
2018-09-17T10:39:05.819Z,1007.15
2018-09-17T10:40:05.810Z,1007.18
2018-09-17T10:41:05.888Z,1007.25
2018-09-17T10:42:05.802Z,1007.29
2018-09-17T10:43:05.776Z,1007.19
2018-09-17T10:44:05.766Z,1007.21
2018-09-17T10:45:05.806Z,1007.19
2018-09-17T10:46:05.749Z,1007.18
2018-09-17T10:47:05.753Z,1007.18
2018-09-17T10:48:05.727Z,1007.13
2018-09-17T10:49:05.715Z,1007.19
2018-09-17T10:50:05.704Z,1007.18
2018-09-17T10:51:05.696Z,1007.11
2018-09-17T10:52:05.700Z,1007.12
2018-09-17T10:53:05.715Z,1007.06
2018-09-17T10:54:05.662Z,1007.02
2018-09-17T10:55:05.652Z,1007.11
2018-09-17T10:56:05.710Z,1007.05
2018-09-17T10:57:05.696Z,1007.06
2018-09-17T10:58:05.620Z,1007.11
2018-09-17T10:59:05.628Z,1007.04
2018-09-17T11:00:05.602Z,1007.07
2018-09-17T11:01:05.591Z,1007.13
2018-09-17T11:02:05.581Z,1007.07
2018-09-17T11:03:05.637Z,1007.08
2018-09-17T11:04:05.558Z,1007.07
2018-09-17T11:05:05.564Z,1007.04
2018-09-17T11:06:05.537Z,1007.04
2018-09-17T11:07:05.530Z,1007.02
2018-09-17T11:08:05.521Z,1007.00
2018-09-17T11:09:05.506Z,1006.99
2018-09-17T11:10:05.537Z,1006.99
2018-09-17T11:11:05.487Z,1007.01
2018-09-17T11:12:05.584Z,1007.02
2018-09-17T11:13:05.466Z,1006.99
2018-09-17T11:14:05.567Z,1006.99
2018-09-17T11:15:05.446Z,1007.01
2018-09-17T11:16:05.463Z,1007.02
2018-09-17T11:17:05.428Z,1007.06
2018-09-17T11:18:05.414Z,1006.96
2018-09-17T11:19:05.460Z,1006.95
2018-09-17T11:20:05.394Z,1006.95
2018-09-17T11:21:05.386Z,1006.97
2018-09-17T11:22:05.385Z,1006.95
2018-09-17T11:23:05.362Z,1006.94
2018-09-17T11:24:05.412Z,1006.92
2018-09-17T11:25:05.415Z,1006.93
2018-09-17T11:26:05.452Z,1006.93
2018-09-17T11:27:05.325Z,1006.92
2018-09-17T11:28:05.313Z,1006.87
2018-09-17T11:29:05.306Z,1006.83
2018-09-17T11:30:05.309Z,1006.83
2018-09-17T11:31:05.280Z,1006.83
2018-09-17T11:32:05.297Z,1006.82
2018-09-17T11:33:05.263Z,1006.83
2018-09-17T11:34:05.255Z,1006.85
2018-09-17T11:35:05.240Z,1006.86
2018-09-17T11:36:05.230Z,1006.84
2018-09-17T11:37:05.229Z,1006.86
2018-09-17T11:38:05.225Z,1006.92
2018-09-17T11:39:05.202Z,1006.87
2018-09-17T11:40:05.286Z,1006.86
2018-09-17T11:41:05.188Z,1006.85
2018-09-17T11:42:05.173Z,1006.85
2018-09-17T11:43:05.160Z,1006.88
2018-09-17T11:44:05.164Z,1006.88
2018-09-17T11:45:05.138Z,1006.91
2018-09-17T11:46:05.130Z,1006.91
2018-09-17T11:47:05.145Z,1006.89
2018-09-17T11:48:05.115Z,1006.89
2018-09-17T11:49:05.112Z,1006.89
2018-09-17T11:50:05.220Z,1006.85
2018-09-17T11:51:05.076Z,1006.79
2018-09-17T11:52:05.064Z,1006.76
2018-09-17T11:53:05.064Z,1006.76
2018-09-17T11:54:05.164Z,1006.81
2018-09-17T11:55:05.095Z,1006.75
2018-09-17T11:56:05.075Z,1006.72
2018-09-17T11:57:05.015Z,1006.74
2018-09-17T11:58:05.007Z,1006.75
2018-09-17T11:59:05.031Z,1006.75
2018-09-17T12:00:04.987Z,1006.74
2018-09-17T12:01:04.974Z,1006.76
2018-09-17T12:02:04.974Z,1006.70
2018-09-17T12:03:05.070Z,1006.67
2018-09-17T12:04:04.950Z,1006.70
2018-09-17T12:05:04.955Z,1006.70